createdAt,value
2023-03-19T00:02:17.999Z,3.27
2023-03-19T00:04:46.267Z,5.27
2023-03-19T00:07:14.224Z,2.80
2023-03-19T00:09:41.554Z,3.47
2023-03-19T00:12:09.220Z,3.33
2023-03-19T00:14:36.509Z,4.70
2023-03-19T00:17:03.861Z,3.93
2023-03-19T00:19:31.273Z,3.47
2023-03-19T00:21:58.677Z,3.97
2023-03-19T00:24:26.203Z,4.70
2023-03-19T00:26:53.806Z,5.13
2023-03-19T00:29:21.610Z,3.57
2023-03-19T00:31:49.209Z,3.40
2023-03-19T00:34:19.572Z,4.60
2023-03-19T00:36:49.380Z,3.43
2023-03-19T00:39:16.781Z,4.97
2023-03-19T00:41:50.523Z,5.63
2023-03-19T00:44:19.187Z,6.00
2023-03-19T00:46:46.951Z,5.63
2023-03-19T00:49:14.327Z,6.10
2023-03-19T00:51:44.015Z,5.43
2023-03-19T00:54:12.266Z,6.20
2023-03-19T00:56:39.931Z,5.07
2023-03-19T00:59:07.289Z,5.80
2023-03-19T01:01:34.763Z,5.30
2023-03-19T01:04:02.453Z,4.87
2023-03-19T01:06:29.936Z,5.10
2023-03-19T01:08:57.406Z,5.63
2023-03-19T01:11:26.147Z,5.23
2023-03-19T01:13:53.638Z,5.80
2023-03-19T01:16:21.214Z,4.53
2023-03-19T01:18:48.546Z,5.07
2023-03-19T01:21:16.816Z,5.57
2023-03-19T01:23:49.038Z,4.93
2023-03-19T01:26:16.673Z,7.90
2023-03-19T01:28:44.116Z,6.90
2023-03-19T01:31:12.568Z,7.93
2023-03-19T01:33:56.995Z,4.93
2023-03-19T01:36:34.652Z,5.90
2023-03-19T01:39:04.885Z,5.47
2023-03-19T01:41:32.396Z,8.17
2023-03-19T01:44:25.026Z,7.13
2023-03-19T01:47:16.602Z,8.47
2023-03-19T01:50:02.672Z,7.57
2023-03-19T01:52:33.853Z,5.70
2023-03-19T01:55:11.523Z,6.50
2023-03-19T01:57:48.110Z,5.30
2023-03-19T02:00:41.380Z,5.87
2023-03-19T02:03:08.838Z,6.20
2023-03-19T02:05:51.432Z,5.63
2023-03-19T02:08:22.959Z,9.03
2023-03-19T02:10:52.212Z,5.03
2023-03-19T02:13:19.622Z,5.70
2023-03-19T02:15:47.269Z,6.40
2023-03-19T02:18:16.071Z,5.33
2023-03-19T02:20:46.555Z,6.10
2023-03-19T02:23:23.644Z,5.93
2023-03-19T02:25:59.159Z,6.67
2023-03-19T02:28:26.831Z,6.93
2023-03-19T02:30:54.726Z,6.37
2023-03-19T02:33:22.160Z,5.00
2023-03-19T02:35:51.727Z,6.10
2023-03-19T02:38:26.089Z,6.70
2023-03-19T02:40:56.357Z,5.27
2023-03-19T02:43:24.158Z,5.67
2023-03-19T02:45:52.422Z,5.93
2023-03-19T02:48:19.874Z,6.10
2023-03-19T02:50:47.253Z,4.90
2023-03-19T02:53:15.847Z,6.10
2023-03-19T02:55:43.757Z,5.97
2023-03-19T02:58:11.331Z,6.33
2023-03-19T03:00:38.868Z,4.47
2023-03-19T03:03:07.660Z,5.60
2023-03-19T03:05:38.286Z,5.70
2023-03-19T03:08:06.081Z,7.47
2023-03-19T03:10:34.323Z,7.93
2023-03-19T03:13:01.924Z,4.50
2023-03-19T03:15:29.808Z,5.53
2023-03-19T03:17:57.205Z,4.27
2023-03-19T03:20:24.851Z,3.60
2023-03-19T03:22:53.689Z,4.37
2023-03-19T03:25:21.343Z,7.33
2023-03-19T03:27:48.960Z,5.80
2023-03-19T03:30:17.024Z,6.60
2023-03-19T03:32:44.960Z,8.40
2023-03-19T03:35:12.352Z,7.83
2023-03-19T03:37:39.930Z,5.63
2023-03-19T03:40:08.053Z,5.60
2023-03-19T03:42:37.306Z,7.07
2023-03-19T03:45:07.267Z,6.53
2023-03-19T03:47:34.584Z,6.77
2023-03-19T03:50:02.153Z,7.63
2023-03-19T03:52:31.629Z,7.47
2023-03-19T03:54:59.600Z,7.17
2023-03-19T03:57:27.598Z,5.17
2023-03-19T03:59:56.145Z,5.93
2023-03-19T04:02:25.107Z,6.57
2023-03-19T04:04:52.602Z,6.33
2023-03-19T04:07:19.939Z,8.63
2023-03-19T04:09:55.765Z,7.90
2023-03-19T04:12:23.163Z,6.57
2023-03-19T04:14:50.672Z,6.37
2023-03-19T04:17:20.266Z,5.87
2023-03-19T04:19:47.601Z,6.87
2023-03-19T04:22:17.514Z,5.63
2023-03-19T04:24:45.245Z,8.13
2023-03-19T04:27:12.680Z,11.73
2023-03-19T04:29:40.883Z,8.60
2023-03-19T04:32:08.677Z,7.63
2023-03-19T04:34:37.404Z,9.30
2023-03-19T04:37:04.757Z,9.73
2023-03-19T04:39:34.770Z,9.03
2023-03-19T04:42:02.229Z,7.83
2023-03-19T04:44:32.368Z,10.07
2023-03-19T04:47:01.989Z,9.57
2023-03-19T04:49:34.798Z,11.57
2023-03-19T04:52:02.279Z,10.27
2023-03-19T04:54:29.756Z,8.40
2023-03-19T04:56:57.498Z,10.97
2023-03-19T04:59:28.770Z,7.50
2023-03-19T05:01:56.778Z,8.20
2023-03-19T05:04:25.381Z,8.20
2023-03-19T05:06:57.346Z,12.13
2023-03-19T05:09:24.982Z,14.30
2023-03-19T05:11:52.336Z,12.57
2023-03-19T05:14:21.989Z,10.67
2023-03-19T05:17:02.927Z,9.57
2023-03-19T05:19:40.236Z,11.30
2023-03-19T05:22:09.284Z,9.30
2023-03-19T05:24:36.606Z,11.07
2023-03-19T05:27:03.966Z,13.07
2023-03-19T05:29:46.952Z,11.83
2023-03-19T05:32:21.203Z,14.57
2023-03-19T05:34:49.398Z,11.30
2023-03-19T05:37:18.293Z,10.87
2023-03-19T05:39:52.168Z,12.53
2023-03-19T05:42:19.688Z,11.03
2023-03-19T05:44:47.293Z,9.20
2023-03-19T05:47:27.183Z,8.33
2023-03-19T05:49:57.321Z,8.27
2023-03-19T05:52:24.941Z,12.10
2023-03-19T05:54:54.848Z,10.50
2023-03-19T05:57:42.417Z,14.27
2023-03-19T06:00:15.975Z,9.80
2023-03-19T06:02:43.485Z,13.60
2023-03-19T06:05:29.733Z,12.47
2023-03-19T06:08:02.976Z,12.00
2023-03-19T06:10:48.975Z,9.10
2023-03-19T06:13:16.713Z,12.87
2023-03-19T06:16:04.476Z,9.73
2023-03-19T06:18:41.690Z,12.33
2023-03-19T06:21:13.133Z,13.37
2023-03-19T06:23:40.747Z,15.23
2023-03-19T06:26:09.491Z,14.40
2023-03-19T06:28:44.755Z,12.37
2023-03-19T06:31:13.146Z,11.03
2023-03-19T06:34:19.049Z,11.53
2023-03-19T06:36:46.940Z,12.47
2023-03-19T06:39:17.078Z,12.47
2023-03-19T06:41:44.485Z,12.60
2023-03-19T06:44:16.913Z,12.40
2023-03-19T06:46:44.370Z,11.13
2023-03-19T06:49:11.761Z,11.83
2023-03-19T06:51:39.254Z,16.33
2023-03-19T06:54:06.700Z,11.07
2023-03-19T06:56:34.086Z,14.43
2023-03-19T06:59:01.494Z,11.90
2023-03-19T07:01:28.973Z,13.20
2023-03-19T07:03:57.352Z,12.00
2023-03-19T07:06:24.768Z,12.87
2023-03-19T07:08:52.278Z,12.47
2023-03-19T07:11:19.746Z,17.87
2023-03-19T07:13:47.240Z,9.10
2023-03-19T07:16:14.575Z,12.60
2023-03-19T07:18:42.097Z,12.83
2023-03-19T07:21:09.451Z,14.97
2023-03-19T07:23:36.810Z,13.97
2023-03-19T07:26:07.253Z,11.67
2023-03-19T07:28:34.693Z,13.37
2023-03-19T07:31:02.043Z,12.03
2023-03-19T07:33:30.412Z,18.17
2023-03-19T07:35:57.761Z,16.30
2023-03-19T07:38:27.597Z,17.87
2023-03-19T07:41:02.438Z,16.83
2023-03-19T07:43:31.386Z,16.00
2023-03-19T07:45:59.692Z,13.23
2023-03-19T07:48:27.636Z,16.23
2023-03-19T07:50:55.140Z,20.13
2023-03-19T07:53:25.260Z,14.67
2023-03-19T07:55:52.716Z,13.50
2023-03-19T07:58:20.071Z,18.30
2023-03-19T08:00:49.896Z,16.37
2023-03-19T08:03:17.396Z,10.57
2023-03-19T08:05:44.798Z,16.77
2023-03-19T08:08:15.931Z,18.30
2023-03-19T08:10:43.350Z,13.47
2023-03-19T08:13:10.852Z,21.43
2023-03-19T08:15:40.440Z,15.23
2023-03-19T08:18:07.833Z,21.40
2023-03-19T08:20:35.986Z,16.80
2023-03-19T08:23:03.635Z,10.07
2023-03-19T08:25:32.617Z,24.50
2023-03-19T08:28:06.715Z,15.03
2023-03-19T08:30:34.819Z,16.37
2023-03-19T08:33:02.410Z,23.00
2023-03-19T08:35:29.936Z,21.00
2023-03-19T08:37:57.430Z,22.30
2023-03-19T08:40:24.940Z,13.40
2023-03-19T08:42:52.667Z,10.90
2023-03-19T08:45:20.790Z,19.20
2023-03-19T08:47:51.401Z,18.83
2023-03-19T08:50:19.109Z,17.33
2023-03-19T08:52:46.752Z,16.07
2023-03-19T08:55:15.216Z,22.73
2023-03-19T08:57:42.600Z,23.37
2023-03-19T09:00:10.327Z,18.60
2023-03-19T09:02:37.725Z,16.10
2023-03-19T09:05:07.747Z,16.20
2023-03-19T09:07:35.330Z,19.27
2023-03-19T09:10:02.717Z,17.87
2023-03-19T09:12:30.375Z,16.20
2023-03-19T09:14:57.906Z,22.57
2023-03-19T09:17:27.947Z,14.67
2023-03-19T09:19:55.569Z,18.23
2023-03-19T09:22:23.104Z,25.20
2023-03-19T09:24:50.645Z,15.47
2023-03-19T09:27:19.080Z,18.90
2023-03-19T09:29:46.793Z,15.07
2023-03-19T09:32:14.257Z,17.53
2023-03-19T09:34:41.771Z,21.63
2023-03-19T09:37:11.725Z,19.90
2023-03-19T09:39:39.034Z,18.00
2023-03-19T09:42:07.198Z,19.33
2023-03-19T09:44:37.963Z,16.87
2023-03-19T09:47:08.512Z,16.67
2023-03-19T09:49:42.393Z,18.90
2023-03-19T09:52:30.936Z,18.00
2023-03-19T09:55:01.404Z,16.33
2023-03-19T09:57:36.865Z,15.27
2023-03-19T10:00:14.932Z,19.13
2023-03-19T10:02:43.398Z,18.90
2023-03-19T10:05:20.582Z,19.53
2023-03-19T10:07:57.704Z,18.93
2023-03-19T10:10:38.526Z,15.93
2023-03-19T10:13:39.668Z,18.17
2023-03-19T10:16:10.805Z,15.27
2023-03-19T10:18:39.661Z,16.87
2023-03-19T10:21:07.076Z,16.33
2023-03-19T10:23:53.272Z,21.57
2023-03-19T10:26:21.784Z,19.80
2023-03-19T10:29:12.165Z,15.07
2023-03-19T10:31:43.955Z,12.20
2023-03-19T10:34:16.834Z,15.00
2023-03-19T10:36:52.985Z,18.63
2023-03-19T10:39:20.545Z,11.90
2023-03-19T10:41:51.620Z,12.23
2023-03-19T10:44:30.540Z,14.87
2023-03-19T10:46:59.046Z,10.27
2023-03-19T10:49:26.948Z,12.03
2023-03-19T10:51:58.606Z,12.33
2023-03-19T10:54:30.238Z,12.13
2023-03-19T10:57:01.498Z,9.93
2023-03-19T10:59:32.040Z,11.37
2023-03-19T11:02:05.636Z,11.40
2023-03-19T11:04:35.831Z,12.93
2023-03-19T11:07:04.747Z,12.47
2023-03-19T11:09:43.284Z,13.20
2023-03-19T11:12:25.119Z,10.10
2023-03-19T11:14:53.495Z,11.83
2023-03-19T11:17:23.973Z,11.37
2023-03-19T11:20:00.610Z,10.30
2023-03-19T11:22:32.243Z,12.80
2023-03-19T11:25:15.090Z,9.47
2023-03-19T11:27:43.635Z,9.37
2023-03-19T11:30:18.590Z,12.63
2023-03-19T11:32:57.435Z,13.97
2023-03-19T11:35:28.820Z,10.50
2023-03-19T11:37:58.068Z,16.47
2023-03-19T11:40:32.045Z,13.60
2023-03-19T11:43:25.583Z,9.03
2023-03-19T11:46:05.436Z,11.00
2023-03-19T11:48:38.699Z,11.93
2023-03-19T11:51:09.369Z,11.43
2023-03-19T11:53:36.714Z,11.47
2023-03-19T11:56:22.549Z,11.17
2023-03-19T11:58:53.135Z,10.17
2023-03-19T12:01:25.296Z,11.33
2023-03-19T12:04:16.241Z,12.77
2023-03-19T12:06:44.019Z,11.23
2023-03-19T12:09:14.633Z,15.33
2023-03-19T12:12:02.844Z,15.53
2023-03-19T12:14:33.281Z,12.73
2023-03-19T12:17:04.924Z,12.80
2023-03-19T12:19:40.789Z,12.70
2023-03-19T12:22:08.352Z,9.90
2023-03-19T12:24:42.249Z,13.10
2023-03-19T12:27:16.032Z,12.57
2023-03-19T12:29:59.870Z,15.33
2023-03-19T12:32:30.454Z,15.87
2023-03-19T12:35:03.403Z,13.23
2023-03-19T12:37:39.328Z,10.27
2023-03-19T12:40:21.277Z,16.23
2023-03-19T12:42:51.957Z,13.37
2023-03-19T12:45:28.238Z,10.63
2023-03-19T12:48:00.036Z,13.17
2023-03-19T12:50:28.565Z,9.70
2023-03-19T12:52:58.646Z,12.80
2023-03-19T12:55:36.597Z,10.80
2023-03-19T12:58:07.133Z,13.07
2023-03-19T13:00:36.479Z,10.27
2023-03-19T13:03:03.896Z,11.70
2023-03-19T13:05:43.625Z,10.80
2023-03-19T13:08:26.250Z,13.47
2023-03-19T13:10:53.956Z,11.83
2023-03-19T13:13:21.208Z,12.70
2023-03-19T13:15:50.143Z,9.90
2023-03-19T13:18:17.618Z,12.10
2023-03-19T13:20:44.983Z,11.47
2023-03-19T13:23:14.613Z,9.07
2023-03-19T13:25:43.114Z,9.77
2023-03-19T13:28:19.946Z,6.97
2023-03-19T13:31:18.091Z,10.37
2023-03-19T13:34:02.060Z,12.43
2023-03-19T13:36:32.879Z,8.70
2023-03-19T13:39:01.507Z,9.90
2023-03-19T13:41:34.882Z,8.70
2023-03-19T13:44:17.831Z,11.23
2023-03-19T13:46:45.480Z,8.80
2023-03-19T13:49:27.394Z,9.53
2023-03-19T13:51:58.675Z,12.67
2023-03-19T13:54:34.146Z,9.30
2023-03-19T13:57:02.386Z,9.03
2023-03-19T13:59:31.253Z,9.07
2023-03-19T14:01:59.224Z,10.10
2023-03-19T14:04:29.287Z,9.33
2023-03-19T14:06:58.443Z,8.30
2023-03-19T14:09:28.855Z,8.17
2023-03-19T14:11:56.406Z,7.80
2023-03-19T14:14:24.890Z,8.90
2023-03-19T14:16:54.165Z,6.80
2023-03-19T14:19:21.777Z,6.20
2023-03-19T14:21:52.220Z,8.77
2023-03-19T14:24:55.681Z,12.67
2023-03-19T14:27:23.935Z,6.80
2023-03-19T14:29:51.298Z,8.37
2023-03-19T14:32:20.205Z,7.63
2023-03-19T14:34:49.633Z,9.43
2023-03-19T14:37:28.810Z,9.27
2023-03-19T14:40:04.509Z,8.47
2023-03-19T14:42:35.440Z,7.03
2023-03-19T14:45:21.606Z,9.37
2023-03-19T14:48:00.705Z,8.27
2023-03-19T14:50:34.216Z,8.53
2023-03-19T14:53:21.051Z,8.77
2023-03-19T14:55:51.103Z,7.30
2023-03-19T14:58:20.454Z,9.13
2023-03-19T15:00:49.809Z,7.87
2023-03-19T15:03:22.031Z,9.03
2023-03-19T15:05:50.635Z,8.87
2023-03-19T15:08:22.303Z,9.47
2023-03-19T15:10:56.402Z,10.20
2023-03-19T15:13:43.024Z,6.50
2023-03-19T15:16:10.607Z,11.37
2023-03-19T15:18:38.289Z,7.70
2023-03-19T15:21:06.344Z,7.37
2023-03-19T15:23:33.982Z,8.90
2023-03-19T15:26:03.220Z,11.00
2023-03-19T15:28:33.128Z,9.17
2023-03-19T15:31:19.463Z,7.80
2023-03-19T15:33:52.906Z,5.90
2023-03-19T15:36:26.847Z,12.83
2023-03-19T15:39:01.961Z,7.20
2023-03-19T15:41:31.469Z,10.77
2023-03-19T15:43:59.743Z,8.70
2023-03-19T15:46:30.185Z,7.70
2023-03-19T15:49:05.419Z,7.73
2023-03-19T15:51:33.511Z,8.50
2023-03-19T15:54:02.366Z,6.90
2023-03-19T15:56:30.088Z,10.90
2023-03-19T15:59:00.312Z,9.90
2023-03-19T16:01:28.475Z,6.50
2023-03-19T16:04:01.173Z,9.00
2023-03-19T16:06:33.049Z,7.40
2023-03-19T16:09:19.043Z,7.60
2023-03-19T16:11:46.993Z,6.90
2023-03-19T16:14:20.882Z,6.60
2023-03-19T16:16:49.155Z,8.67
2023-03-19T16:19:31.918Z,8.47
2023-03-19T16:22:00.321Z,8.90
2023-03-19T16:24:42.057Z,10.10
2023-03-19T16:27:14.106Z,7.57
2023-03-19T16:29:42.412Z,7.17
2023-03-19T16:32:18.751Z,9.63
2023-03-19T16:34:50.175Z,10.10
2023-03-19T16:37:35.739Z,9.03
2023-03-19T16:40:12.271Z,8.87
2023-03-19T16:42:41.216Z,9.07
2023-03-19T16:45:18.195Z,6.73
2023-03-19T16:47:47.108Z,7.07
2023-03-19T16:50:15.324Z,5.60
2023-03-19T16:52:43.570Z,4.40
2023-03-19T16:55:27.837Z,6.40
2023-03-19T16:58:00.010Z,7.00
2023-03-19T17:00:32.030Z,5.97
2023-03-19T17:03:00.294Z,5.70
2023-03-19T17:05:28.609Z,7.50
2023-03-19T17:07:57.850Z,6.17
2023-03-19T17:10:27.822Z,7.40
2023-03-19T17:12:56.122Z,5.37
2023-03-19T17:15:36.018Z,5.47
2023-03-19T17:18:04.775Z,5.50
2023-03-19T17:20:34.311Z,5.87
2023-03-19T17:23:02.044Z,4.43
2023-03-19T17:25:29.851Z,3.80
2023-03-19T17:27:57.275Z,5.17
2023-03-19T17:30:26.519Z,4.20
2023-03-19T17:32:57.180Z,6.20
2023-03-19T17:35:24.858Z,4.93
2023-03-19T17:37:53.438Z,6.10
2023-03-19T17:40:23.199Z,4.20
2023-03-19T17:42:51.534Z,2.43
2023-03-19T17:45:20.632Z,2.13
2023-03-19T17:47:50.202Z,5.63
2023-03-19T17:50:27.928Z,3.00
2023-03-19T17:52:58.240Z,4.17
2023-03-19T17:55:26.974Z,4.07
2023-03-19T17:57:55.490Z,2.27
2023-03-19T18:00:24.301Z,2.87
2023-03-19T18:02:52.890Z,2.60
2023-03-19T18:05:24.927Z,4.43
2023-03-19T18:07:54.540Z,3.27
2023-03-19T18:10:34.592Z,3.13
2023-03-19T18:13:02.560Z,3.73
2023-03-19T18:15:34.621Z,4.70
2023-03-19T18:18:03.763Z,2.87
2023-03-19T18:20:36.934Z,2.80
2023-03-19T18:23:05.105Z,4.60
2023-03-19T18:25:35.280Z,3.33
2023-03-19T18:28:06.211Z,5.03
2023-03-19T18:30:35.240Z,5.20
2023-03-19T18:33:04.523Z,5.90
2023-03-19T18:35:37.511Z,4.03
2023-03-19T18:38:05.082Z,5.07
2023-03-19T18:40:33.251Z,3.03
2023-03-19T18:43:01.928Z,4.67
2023-03-19T18:45:30.954Z,3.30
2023-03-19T18:47:59.506Z,3.50
2023-03-19T18:50:32.579Z,5.03
2023-03-19T18:52:59.990Z,3.90
2023-03-19T18:55:28.848Z,3.47
2023-03-19T18:57:57.825Z,4.17
2023-03-19T19:00:26.909Z,2.77
2023-03-19T19:02:55.339Z,3.97
2023-03-19T19:05:27.712Z,3.07
2023-03-19T19:07:56.517Z,2.97
2023-03-19T19:10:24.668Z,3.50
2023-03-19T19:12:53.769Z,2.13
2023-03-19T19:15:26.459Z,4.10
2023-03-19T19:17:54.166Z,2.90
2023-03-19T19:20:23.840Z,4.27
2023-03-19T19:22:51.751Z,4.57
2023-03-19T19:25:20.768Z,2.40
2023-03-19T19:27:50.560Z,3.47
2023-03-19T19:30:19.442Z,5.37
2023-03-19T19:32:46.847Z,3.47
2023-03-19T19:35:32.643Z,2.67
2023-03-19T19:37:59.959Z,3.37
2023-03-19T19:40:31.918Z,3.40
2023-03-19T19:43:00.368Z,2.37
2023-03-19T19:45:36.475Z,4.73
2023-03-19T19:48:04.556Z,3.00
2023-03-19T19:50:32.072Z,3.27
2023-03-19T19:52:59.833Z,3.47
2023-03-19T19:55:27.541Z,2.43
2023-03-19T19:57:55.993Z,2.50
2023-03-19T20:00:26.110Z,2.63
2023-03-19T20:02:55.022Z,1.90
2023-03-19T20:05:23.588Z,4.70
2023-03-19T20:07:52.042Z,2.27
2023-03-19T20:10:20.131Z,2.63
2023-03-19T20:12:49.314Z,2.00
2023-03-19T20:15:18.246Z,2.33
2023-03-19T20:17:46.857Z,1.87
2023-03-19T20:20:17.423Z,2.00
2023-03-19T20:22:45.713Z,1.87
2023-03-19T20:25:13.936Z,1.80
2023-03-19T20:27:42.144Z,2.60
2023-03-19T20:30:29.671Z,5.40
2023-03-19T20:32:58.019Z,2.27
2023-03-19T20:35:26.788Z,3.00
2023-03-19T20:37:54.881Z,1.97
2023-03-19T20:40:23.445Z,2.27
2023-03-19T20:42:52.443Z,3.00
2023-03-19T20:45:24.855Z,3.07
2023-03-19T20:47:53.218Z,2.43
2023-03-19T20:50:23.811Z,2.83
2023-03-19T20:52:51.773Z,1.90
2023-03-19T20:55:22.827Z,1.90
2023-03-19T20:57:52.350Z,3.37
2023-03-19T21:00:25.235Z,4.00
2023-03-19T21:02:53.665Z,3.03
2023-03-19T21:05:21.612Z,2.70
2023-03-19T21:07:50.401Z,2.63
2023-03-19T21:10:21.959Z,3.00
2023-03-19T21:12:50.122Z,2.03
2023-03-19T21:15:17.900Z,1.87
2023-03-19T21:17:45.373Z,4.13
2023-03-19T21:20:17.634Z,1.93
2023-03-19T21:22:46.716Z,2.33
2023-03-19T21:25:18.135Z,2.00
2023-03-19T21:27:47.123Z,3.93
2023-03-19T21:30:16.866Z,2.07
2023-03-19T21:32:44.363Z,1.70
2023-03-19T21:35:19.397Z,1.90
2023-03-19T21:37:47.611Z,2.23
2023-03-19T21:40:19.976Z,1.83
2023-03-19T21:42:49.599Z,1.50
2023-03-19T21:45:20.608Z,4.30
2023-03-19T21:47:48.068Z,2.60
2023-03-19T21:50:17.452Z,1.63
2023-03-19T21:52:57.793Z,2.07
2023-03-19T21:55:26.188Z,2.77
2023-03-19T21:57:57.095Z,1.77
2023-03-19T22:00:24.628Z,1.70
2023-03-19T22:02:52.010Z,2.20
2023-03-19T22:05:21.374Z,2.20
2023-03-19T22:07:49.151Z,2.20
2023-03-19T22:10:16.633Z,2.63
2023-03-19T22:12:44.917Z,1.77
2023-03-19T22:15:23.433Z,2.37
2023-03-19T22:17:51.495Z,2.30
2023-03-19T22:20:21.087Z,1.50
2023-03-19T22:22:48.903Z,2.73
2023-03-19T22:25:22.201Z,1.63
2023-03-19T22:27:50.799Z,2.07
2023-03-19T22:30:32.255Z,4.37
2023-03-19T22:32:59.861Z,1.83
2023-03-19T22:35:27.560Z,3.90
2023-03-19T22:37:54.931Z,2.50
2023-03-19T22:40:22.506Z,3.20
2023-03-19T22:42:50.231Z,4.53
2023-03-19T22:45:28.605Z,2.97
2023-03-19T22:47:57.104Z,2.70
2023-03-19T22:50:26.296Z,2.93
2023-03-19T22:52:54.079Z,2.00
2023-03-19T22:55:21.859Z,3.10
2023-03-19T22:57:49.465Z,2.00
2023-03-19T23:00:21.082Z,3.83
2023-03-19T23:02:54.787Z,2.33
2023-03-19T23:05:27.774Z,5.17
2023-03-19T23:07:55.444Z,3.03
2023-03-19T23:10:23.880Z,1.40
2023-03-19T23:12:51.875Z,1.97
2023-03-19T23:15:19.485Z,1.53
2023-03-19T23:17:47.435Z,1.63
2023-03-19T23:20:16.124Z,1.83
2023-03-19T23:22:43.908Z,2.07
2023-03-19T23:25:15.562Z,2.00
2023-03-19T23:27:43.688Z,2.30
2023-03-19T23:30:19.825Z,2.73
2023-03-19T23:32:47.669Z,4.13
2023-03-19T23:35:16.312Z,2.47
2023-03-19T23:37:43.990Z,3.20
2023-03-19T23:40:11.636Z,2.17
2023-03-19T23:42:41.051Z,2.80
2023-03-19T23:45:17.306Z,1.60
2023-03-19T23:47:44.812Z,1.70
2023-03-19T23:50:15.698Z,2.37
2023-03-19T23:52:43.482Z,2.43
2023-03-19T23:55:11.270Z,1.73
2023-03-19T23:57:39.305Z,1.60
